Darstellungsparameter: Aktuell verwendete Einstellungen:
Skalierung der Graphiken ... ?
xyx+y,   Skalierungsfaktor:      Skalierung: Modus: x, Faktor: 1
Darstellungszeitraum ... ?
Vom - - bis: - -   Zeitraum: 25.09.2009 - 30.09.2009
Min/Max/Avg-Anzeige ... ?
Zeige MMA aktuell
Zeige MMA Monat
Zeige MMA alles
Zeige --A aktuell
Zeige --A Monat
Zeige --A alles
Keine MMA-Anzeige
MMA:
Average (ber die Originaldaten)
MMA-Basis: 25.09.2009 - 30.09.2009
Quicknavigation für Darstellung... ?
Tage:      1T, 2T, 3T, 5T -1T -2T -3T -5T +1T +2T +3T +5T
Wochen: 1W, 2W, 3W -1W -2W -3W +1W +2W +3W
Monate: 1M, 3M, 6M -1M -3M -6M +1M +3M +6M
Jahre:    1J, 3J, 5J, 10J -1J -3J -5J -10J +1J +3J +5J +10J
Nutze für die Darstellung ... ?
Originaldaten oder Mittelwerte auf ...
Stundenbasis Tagesbasis Wochenbasis
Monatsbasis Jahresbasis      Datenbasis: Original-Daten
Darstellen als:
Statistik (Auto) Statistik J:M      Darstellung:
Zur Graphik,    zurück zur Übersicht aller Sensoren.
 
Tabellarische Datenbersicht: ?
 
Sensor: Nr:Datum:Temp:Abs-Feuchte:Windchill:Wind:
Aussen-T/F 1 25-09-2009 00:08:04 13 C 9.64 g/m*3 13 C 0 km/h
2 25-09-2009 00:20:04 12.8 C 9.63 g/m*3 12.8 C 0 km/h
3 25-09-2009 00:32:04 12.7 C 9.57 g/m*3 12.7 C 0 km/h
4 25-09-2009 00:44:04 12.5 C 9.57 g/m*3 12.5 C 0 km/h
5 25-09-2009 00:56:04 12.4 C 9.51 g/m*3 12.4 C 0 km/h
6 25-09-2009 01:08:04 12.3 C 9.45 g/m*3 12.3 C 0 km/h
7 25-09-2009 01:20:04 12.5 C 9.68 g/m*3 12.5 C 0 km/h
8 25-09-2009 01:32:04 12.6 C 9.74 g/m*3 12.6 C 0 km/h
9 25-09-2009 01:44:04 12.6 C 9.74 g/m*3 12.6 C 0 km/h
10 25-09-2009 01:56:04 12.7 C 9.8 g/m*3 12.7 C 0 km/h
11 25-09-2009 02:08:04 12.8 C 9.74 g/m*3 12.8 C 0 km/h
12 25-09-2009 02:20:04 12.8 C 9.74 g/m*3 12.8 C 0 km/h
13 25-09-2009 02:32:04 12.8 C 9.63 g/m*3 12.8 C 0 km/h
14 25-09-2009 02:44:04 12.7 C 9.57 g/m*3 12.7 C 0 km/h
15 25-09-2009 02:56:04 12.5 C 9.57 g/m*3 12.5 C 0 km/h
16 25-09-2009 03:08:05 12.4 C 9.51 g/m*3 12.4 C 0 km/h
17 25-09-2009 03:20:05 12.2 C 9.39 g/m*3 12.2 C 0 km/h
18 25-09-2009 03:32:05 12.3 C 9.56 g/m*3 12.3 C 0 km/h
19 25-09-2009 03:44:05 12.3 C 9.56 g/m*3 12.3 C 0 km/h
20 25-09-2009 03:56:05 12.4 C 9.62 g/m*3 12.4 C 0 km/h
21 25-09-2009 04:08:05 12.3 C 9.56 g/m*3 12.3 C 0 km/h
22 25-09-2009 04:20:05 11.8 C 9.26 g/m*3 11.8 C 0 km/h
23 25-09-2009 04:32:05 11.7 C 9.2 g/m*3 11.7 C 0 km/h
24 25-09-2009 04:44:05 11.7 C 9.31 g/m*3 11.7 C 0 km/h
25 25-09-2009 04:56:05 11.5 C 9.19 g/m*3 11.5 C 0 km/h
Sensor: Nr:Datum:Temp:Abs-Feuchte:Windchill:Wind:
Aussen-T/F 26 25-09-2009 05:08:05 11.2 C 9.02 g/m*3 11.2 C 0 km/h
27 25-09-2009 05:20:05 11.1 C 8.96 g/m*3 11.1 C 0 km/h
28 25-09-2009 05:32:05 11.1 C 9.07 g/m*3 11.1 C 0 km/h
29 25-09-2009 05:44:05 11 C 9.01 g/m*3 11 C 0 km/h
30 25-09-2009 05:56:05 10.8 C 8.9 g/m*3 10.8 C 0 km/h
31 25-09-2009 06:08:05 10.8 C 8.99 g/m*3 10.8 C 0 km/h
32 25-09-2009 06:20:05 10.9 C 9.05 g/m*3 10.9 C 0 km/h
33 25-09-2009 06:32:05 11 C 9.01 g/m*3 11 C 0 km/h
34 25-09-2009 06:44:05 10.9 C 8.95 g/m*3 10.9 C 0 km/h
35 25-09-2009 06:56:05 10.9 C 8.95 g/m*3 10.9 C 0 km/h
36 25-09-2009 07:08:06 11.1 C 8.96 g/m*3 11.1 C 0 km/h
37 25-09-2009 07:20:06 11.1 C 8.96 g/m*3 11.1 C 0 km/h
38 25-09-2009 07:32:04 11 C 8.91 g/m*3 11 C 0 km/h
39 25-09-2009 07:44:04 10.9 C 8.95 g/m*3 10.9 C 0 km/h
40 25-09-2009 07:56:02 11.1 C 9.07 g/m*3 11.1 C 0 km/h
41 25-09-2009 08:08:02 11.3 C 9.18 g/m*3 11.3 C 0 km/h
42 25-09-2009 08:20:02 11.4 C 9.14 g/m*3 11.4 C 0 km/h
43 25-09-2009 08:32:02 11.6 C 9.25 g/m*3 11.6 C 0 km/h
44 25-09-2009 08:44:02 11.9 C 9.43 g/m*3 11.9 C 0 km/h
45 25-09-2009 08:56:02 11.8 C 9.16 g/m*3 11.8 C 0 km/h
46 25-09-2009 09:08:01 11.9 C 9.21 g/m*3 11.9 C 0 km/h
47 25-09-2009 09:20:01 12.4 C 9.4 g/m*3 12.4 C 0 km/h
48 25-09-2009 09:32:02 12.7 C 9.35 g/m*3 12.7 C 0 km/h
49 25-09-2009 09:44:02 13.2 C 9.42 g/m*3 13.2 C 0 km/h
50 25-09-2009 09:56:02 13.4 C 9.18 g/m*3 13.4 C 0 km/h
Sensor: Nr:Datum:Temp:Abs-Feuchte:Windchill:Wind:
Aussen-T/F 51 25-09-2009 10:08:02 14 C 9.17 g/m*3 14 C 0 km/h
52 25-09-2009 10:20:02 14.1 C 8.86 g/m*3 14.1 C 0 km/h
53 25-09-2009 10:32:02 14.3 C 8.85 g/m*3 14.3 C 0 km/h
54 25-09-2009 10:44:02 14.4 C 8.65 g/m*3 14.4 C 0 km/h
55 25-09-2009 10:56:02 14.6 C 8.76 g/m*3 14.6 C 0 km/h
56 25-09-2009 11:08:02 14.7 C 8.69 g/m*3 14.7 C 0 km/h
57 25-09-2009 11:20:01 15 C 8.59 g/m*3 15 C 0 km/h
58 25-09-2009 11:32:02 15 C 8.72 g/m*3 15 C 0 km/h
59 25-09-2009 11:44:02 15 C 8.85 g/m*3 15 C 0 km/h
60 25-09-2009 11:56:02 15.5 C 8.99 g/m*3 15.5 C 0 km/h
61 25-09-2009 12:08:02 15.7 C 8.83 g/m*3 15.7 C 0 km/h
62 25-09-2009 12:20:02 16.3 C 8.74 g/m*3 16.3 C 0 km/h
63 25-09-2009 12:32:02 16.6 C 8.9 g/m*3 16.6 C 0 km/h
64 25-09-2009 12:44:02 16.9 C 8.77 g/m*3 16.9 C 0 km/h
65 25-09-2009 12:56:03 17.7 C 8.6 g/m*3 17.7 C 0 km/h
66 25-09-2009 13:08:02 18.2 C 8.24 g/m*3 18.2 C 0 km/h
67 25-09-2009 13:20:02 18.8 C 8.37 g/m*3 18.8 C 0 km/h
68 25-09-2009 13:32:02 19.4 C 7.67 g/m*3 19.4 C 0 km/h
69 25-09-2009 13:44:02 20 C 7.09 g/m*3 20 C 0 km/h
70 25-09-2009 13:56:02 20.9 C 7.1 g/m*3 20.9 C 0 km/h
71 25-09-2009 14:08:02 21 C 5.86 g/m*3 21 C 0 km/h
72 25-09-2009 14:20:01 21.3 C 6.15 g/m*3 21.3 C 0 km/h
73 25-09-2009 14:32:02 22.7 C 6.26 g/m*3 22.7 C 0 km/h
74 25-09-2009 14:44:02 22.1 C 6.05 g/m*3 22.1 C 0 km/h
75 25-09-2009 14:56:02 21.5 C 6.6 g/m*3 21.5 C 0 km/h
Sensor: Nr:Datum:Temp:Abs-Feuchte:Windchill:Wind:
Aussen-T/F 76 25-09-2009 15:08:02 20.4 C 6.55 g/m*3 20.4 C 0 km/h
77 25-09-2009 15:20:02 20.5 C 7.12 g/m*3 20.5 C 0 km/h
78 25-09-2009 15:32:02 22.1 C 6.44 g/m*3 22.1 C 0 km/h
79 25-09-2009 15:44:02 23.1 C 5.58 g/m*3 23.1 C 0 km/h
80 25-09-2009 15:56:02 21.1 C 5.53 g/m*3 21.1 C 0 km/h
81 25-09-2009 16:08:02 21.3 C 5.96 g/m*3 21.3 C 0 km/h
82 25-09-2009 16:20:02 21.2 C 6.12 g/m*3 21.2 C 0 km/h
83 25-09-2009 16:32:02 20.4 C 6.37 g/m*3 20.4 C 0 km/h
84 25-09-2009 16:44:02 20.5 C 6.41 g/m*3 20.5 C 0 km/h
85 25-09-2009 16:56:02 21.4 C 6.19 g/m*3 21.4 C 0 km/h
86 25-09-2009 17:08:02 20.8 C 5.98 g/m*3 20.8 C 0 km/h
87 25-09-2009 17:20:02 21.5 C 6.22 g/m*3 21.5 C 0 km/h
88 25-09-2009 17:32:02 21.5 C 6.41 g/m*3 21.5 C 0 km/h
89 25-09-2009 17:44:02 20.8 C 6.7 g/m*3 20.8 C 0 km/h
90 25-09-2009 17:56:01 20 C 6.91 g/m*3 20 C 0 km/h
91 25-09-2009 18:08:01 19.9 C 7.39 g/m*3 19.9 C 0 km/h
92 25-09-2009 18:20:02 19.5 C 7.55 g/m*3 19.5 C 0 km/h
93 25-09-2009 18:32:01 19.1 C 7.38 g/m*3 19.1 C 0 km/h
94 25-09-2009 18:44:01 18.6 C 7.48 g/m*3 18.6 C 0 km/h
95 25-09-2009 18:56:02 18.4 C 7.55 g/m*3 18.4 C 0 km/h
96 25-09-2009 19:08:02 17.8 C 7.44 g/m*3 17.8 C 0 km/h
97 25-09-2009 19:20:03 17 C 7.23 g/m*3 17 C 0 km/h
98 25-09-2009 19:32:02 16.8 C 7.43 g/m*3 16.8 C 0 km/h
99 25-09-2009 19:44:02 16.5 C 7.44 g/m*3 16.5 C 0 km/h
100 25-09-2009 19:56:03 16.2 C 7.31 g/m*3 16.2 C 0 km/h
Sensor: Nr:Datum:Temp:Abs-Feuchte:Windchill:Wind:
Aussen-T/F 101 25-09-2009 20:08:02 16 C 7.49 g/m*3 16 C 0 km/h
102 25-09-2009 20:20:02 15.6 C 7.45 g/m*3 15.6 C 0 km/h
103 25-09-2009 20:32:02 15.2 C 7.53 g/m*3 15.2 C 0 km/h
104 25-09-2009 20:44:02 15.1 C 7.61 g/m*3 15.1 C 0 km/h
105 25-09-2009 20:56:02 15.3 C 7.7 g/m*3 15.3 C 0 km/h
106 25-09-2009 21:08:02 15.5 C 7.93 g/m*3 15.5 C 0 km/h
107 25-09-2009 21:20:02 15.5 C 8.06 g/m*3 15.5 C 0 km/h
108 25-09-2009 21:32:02 15.6 C 8.11 g/m*3 15.6 C 0 km/h
109 25-09-2009 21:44:02 15.4 C 8.01 g/m*3 15.4 C 0 km/h
110 25-09-2009 21:56:02 15.1 C 8 g/m*3 15.1 C 0 km/h
111 25-09-2009 22:08:02 14.9 C 8.03 g/m*3 14.9 C 0 km/h
112 25-09-2009 22:21:03 14.6 C 8.01 g/m*3 14.6 C 0 km/h
113 25-09-2009 22:33:03 14.3 C 7.86 g/m*3 14.3 C 0 km/h
114 25-09-2009 22:45:03 13.9 C 7.91 g/m*3 13.9 C 0 km/h
115 25-09-2009 22:57:03 13.7 C 7.93 g/m*3 13.7 C 0 km/h
116 25-09-2009 23:09:03 13.3 C 7.97 g/m*3 13.3 C 0 km/h
117 25-09-2009 23:21:03 13.1 C 7.99 g/m*3 13.1 C 0 km/h
118 25-09-2009 23:33:03 13 C 8.05 g/m*3 13 C 0 km/h
119 25-09-2009 23:45:03 12.7 C 8.13 g/m*3 12.7 C 0 km/h
120 25-09-2009 23:57:03 12.6 C 8.08 g/m*3 12.6 C 0 km/h
121 26-09-2009 00:09:03 12.4 C 8.09 g/m*3 12.4 C 0 km/h
122 26-09-2009 00:21:03 12.1 C 7.94 g/m*3 12.1 C 0 km/h
123 26-09-2009 00:33:03 12.1 C 8.04 g/m*3 12.1 C 0 km/h
124 26-09-2009 00:45:03 11.8 C 8.1 g/m*3 11.8 C 0 km/h
125 26-09-2009 00:57:03 11.8 C 8.1 g/m*3 11.8 C 0 km/h
Sensor: Nr:Datum:Temp:Abs-Feuchte:Windchill:Wind:
Aussen-T/F 126 26-09-2009 01:09:03 11.7 C 8.05 g/m*3 11.7 C 0 km/h
127 26-09-2009 01:21:03 11.6 C 8.11 g/m*3 11.6 C 0 km/h
128 26-09-2009 01:33:03 11.7 C 8.16 g/m*3 11.7 C 0 km/h
129 26-09-2009 01:45:03 11.5 C 8.06 g/m*3 11.5 C 0 km/h
130 26-09-2009 01:57:03 11.2 C 7.91 g/m*3 11.2 C 0 km/h
131 26-09-2009 02:09:04 11.1 C 7.86 g/m*3 11.1 C 0 km/h
132 26-09-2009 02:21:04 10.9 C 7.86 g/m*3 10.9 C 0 km/h
133 26-09-2009 02:33:04 10.7 C 7.86 g/m*3 10.7 C 0 km/h
134 26-09-2009 02:45:04 10.6 C 7.81 g/m*3 10.6 C 0 km/h
135 26-09-2009 02:57:04 10.4 C 7.81 g/m*3 10.4 C 0 km/h
136 26-09-2009 03:09:04 10.1 C 7.66 g/m*3 10.1 C 0 km/h
137 26-09-2009 03:21:04 10 C 7.61 g/m*3 10 C 0 km/h
138 26-09-2009 03:33:04 9.8 C 7.61 g/m*3 9.8 C 0 km/h
139 26-09-2009 03:45:04 9.7 C 7.65 g/m*3 9.7 C 0 km/h
140 26-09-2009 03:57:04 9.5 C 7.55 g/m*3 9.5 C 0 km/h
141 26-09-2009 04:09:04 9.3 C 7.55 g/m*3 9.3 C 0 km/h
142 26-09-2009 04:21:04 9.2 C 7.5 g/m*3 9.2 C 0 km/h
143 26-09-2009 04:33:04 9.1 C 7.54 g/m*3 9.1 C 0 km/h
144 26-09-2009 04:45:04 9 C 7.49 g/m*3 9 C 0 km/h
145 26-09-2009 04:57:04 8.8 C 7.57 g/m*3 8.8 C 0 km/h
146 26-09-2009 05:09:04 8.7 C 7.52 g/m*3 8.7 C 0 km/h
147 26-09-2009 05:21:04 8.6 C 7.48 g/m*3 8.6 C 0 km/h
148 26-09-2009 05:33:04 8.5 C 7.43 g/m*3 8.5 C 0 km/h
149 26-09-2009 05:45:04 8.4 C 7.3 g/m*3 8.4 C 0 km/h
150 26-09-2009 05:57:04 8.2 C 7.29 g/m*3 8.2 C 0 km/h
Sensor: Nr:Datum:Temp:Abs-Feuchte:Windchill:Wind:
Aussen-T/F 151 26-09-2009 06:09:05 8 C 7.19 g/m*3 8 C 0 km/h
152 26-09-2009 06:21:05 7.8 C 7.26 g/m*3 7.8 C 0 km/h
153 26-09-2009 06:33:05 7.8 C 7.26 g/m*3 7.8 C 0 km/h
154 26-09-2009 06:45:05 7.8 C 7.26 g/m*3 7.8 C 0 km/h
155 26-09-2009 06:57:05 7.8 C 7.35 g/m*3 7.8 C 0 km/h
156 26-09-2009 07:09:05 7.9 C 7.39 g/m*3 7.9 C 0 km/h
157 26-09-2009 07:21:05 7.9 C 7.39 g/m*3 7.9 C 0 km/h
158 26-09-2009 07:33:05 7.9 C 7.39 g/m*3 7.9 C 0 km/h
159 26-09-2009 07:45:05 8.1 C 7.41 g/m*3 8.1 C 0 km/h
160 26-09-2009 07:57:05 7.9 C 7.39 g/m*3 7.9 C 0 km/h
161 26-09-2009 08:09:05 7.8 C 7.43 g/m*3 7.8 C 0 km/h
162 26-09-2009 08:21:05 7.9 C 7.47 g/m*3 7.9 C 0 km/h
163 26-09-2009 08:33:05 8 C 7.44 g/m*3 8 C 0 km/h
164 26-09-2009 08:45:02 8.1 C 7.49 g/m*3 8.1 C 0 km/h
165 26-09-2009 08:57:02 8.5 C 7.77 g/m*3 8.5 C 0 km/h
166 26-09-2009 09:09:03 8.7 C 7.78 g/m*3 8.7 C 0 km/h
167 26-09-2009 09:21:02 9.1 C 7.9 g/m*3 9.1 C 0 km/h
168 26-09-2009 09:33:02 9.2 C 7.95 g/m*3 9.2 C 0 km/h
169 26-09-2009 09:45:01 9.5 C 8.1 g/m*3 9.5 C 0 km/h
170 26-09-2009 09:57:01 9.9 C 8.31 g/m*3 9.9 C 0 km/h
171 26-09-2009 10:09:02 10.2 C 8.37 g/m*3 10.2 C 0 km/h
172 26-09-2009 10:21:01 10.9 C 8.65 g/m*3 10.9 C 0 km/h
173 26-09-2009 10:33:02 11.1 C 8.36 g/m*3 11.1 C 0 km/h
174 26-09-2009 10:45:01 11.2 C 8.41 g/m*3 11.2 C 0 km/h
175 26-09-2009 10:57:01 11.7 C 8.79 g/m*3 11.7 C 0 km/h
Sensor: Nr:Datum:Temp:Abs-Feuchte:Windchill:Wind:
Aussen-T/F 176 26-09-2009 11:09:02 12.2 C 8.85 g/m*3 12.2 C 0 km/h
177 26-09-2009 11:21:01 12.8 C 8.85 g/m*3 12.8 C 0 km/h
178 26-09-2009 11:33:02 13.4 C 8.72 g/m*3 13.4 C 0 km/h
179 26-09-2009 11:45:02 14.1 C 8.86 g/m*3 14.1 C 0 km/h
180 26-09-2009 11:57:02 14.7 C 8.81 g/m*3 14.7 C 0 km/h
181 26-09-2009 12:09:02 15.2 C 8.83 g/m*3 15.2 C 0 km/h
182 26-09-2009 12:21:01 15.6 C 8.64 g/m*3 15.6 C 0 km/h
183 26-09-2009 12:33:02 16.1 C 8.5 g/m*3 16.1 C 0 km/h
184 26-09-2009 12:45:02 16.4 C 8.65 g/m*3 16.4 C 0 km/h
185 26-09-2009 12:57:02 17.1 C 8.73 g/m*3 17.1 C 0 km/h
186 26-09-2009 13:09:02 17.6 C 8.85 g/m*3 17.6 C 0 km/h
187 26-09-2009 13:21:02 18.2 C 8.39 g/m*3 18.2 C 0 km/h
188 26-09-2009 13:33:02 18.9 C 8.1 g/m*3 18.9 C 0 km/h
189 26-09-2009 13:45:01 19.7 C 7.81 g/m*3 19.7 C 0 km/h
190 26-09-2009 13:57:01 20.4 C 8.14 g/m*3 20.4 C 0 km/h
191 26-09-2009 14:09:02 20.9 C 7.29 g/m*3 20.9 C 0 km/h
192 26-09-2009 14:21:02 21.1 C 6.82 g/m*3 21.1 C 0 km/h
193 26-09-2009 14:33:02 21.9 C 6.95 g/m*3 21.9 C 0 km/h
194 26-09-2009 14:45:02 22.7 C 7.07 g/m*3 22.7 C 0 km/h
195 26-09-2009 14:57:02 23 C 6.37 g/m*3 23 C 0 km/h
196 26-09-2009 15:09:01 23.4 C 6.52 g/m*3 23.4 C 0 km/h
197 26-09-2009 15:21:02 23.8 C 6.45 g/m*3 23.8 C 0 km/h
198 26-09-2009 15:33:01 24.1 C 6.56 g/m*3 24.1 C 0 km/h
199 26-09-2009 15:45:02 23.9 C 6.06 g/m*3 23.9 C 0 km/h
200 26-09-2009 15:57:02 24 C 5.87 g/m*3 24 C 0 km/h
Sensor: Nr:Datum:Temp:Abs-Feuchte:Windchill:Wind:
Aussen-T/F 201 26-09-2009 16:09:01 24.2 C 5.94 g/m*3 24.2 C 0 km/h
202 26-09-2009 16:21:02 24.4 C 6.68 g/m*3 24.4 C 0 km/h
203 26-09-2009 16:33:02 24.7 C 5.88 g/m*3 24.7 C 0 km/h
204 26-09-2009 16:45:02 24.7 C 6.11 g/m*3 24.7 C 0 km/h
205 26-09-2009 16:57:03 25.7 C 6.46 g/m*3 25.7 C 0 km/h
206 26-09-2009 17:09:02 25.6 C 6.19 g/m*3 25.6 C 0 km/h
207 26-09-2009 17:21:02 26 C 6.33 g/m*3 26 C 0 km/h
208 26-09-2009 17:33:02 25.7 C 6.94 g/m*3 25.7 C 0 km/h
209 26-09-2009 17:45:02 25.5 C 7.1 g/m*3 25.5 C 0 km/h
210 26-09-2009 17:57:02 25 C 6.91 g/m*3 25 C 0 km/h
211 26-09-2009 18:09:02 24.5 C 6.94 g/m*3 24.5 C 0 km/h
212 26-09-2009 18:21:01 23.7 C 7.06 g/m*3 23.7 C 0 km/h
213 26-09-2009 18:33:02 22.7 C 7.07 g/m*3 22.7 C 0 km/h
214 26-09-2009 18:45:02 22 C 7.18 g/m*3 22 C 0 km/h
215 26-09-2009 18:57:02 21.1 C 7.19 g/m*3 21.1 C 0 km/h
216 26-09-2009 19:09:02 20 C 7.26 g/m*3 20 C 0 km/h
217 26-09-2009 19:21:02 19.1 C 7.38 g/m*3 19.1 C 0 km/h
218 26-09-2009 19:33:02 18.3 C 7.35 g/m*3 18.3 C 0 km/h
219 26-09-2009 19:45:02 17.8 C 7.44 g/m*3 17.8 C 0 km/h
220 26-09-2009 19:57:02 17.2 C 7.47 g/m*3 17.2 C 0 km/h
221 26-09-2009 20:09:02 17.1 C 7.57 g/m*3 17.1 C 0 km/h
222 26-09-2009 20:21:02 16.7 C 7.53 g/m*3 16.7 C 0 km/h
223 26-09-2009 20:33:02 16.2 C 7.58 g/m*3 16.2 C 0 km/h
224 26-09-2009 20:45:01 16 C 7.49 g/m*3 16 C 0 km/h
225 26-09-2009 20:57:01 15.8 C 7.67 g/m*3 15.8 C 0 km/h
Sensor: Nr:Datum:Temp:Abs-Feuchte:Windchill:Wind:
Aussen-T/F 226 26-09-2009 21:09:02 15.5 C 7.67 g/m*3 15.5 C 0 km/h
227 26-09-2009 21:21:01 15.3 C 7.57 g/m*3 15.3 C 0 km/h
228 26-09-2009 21:33:01 14.9 C 7.65 g/m*3 14.9 C 0 km/h
229 26-09-2009 21:45:01 14.7 C 7.81 g/m*3 14.7 C 0 km/h
230 26-09-2009 21:57:01 14.5 C 7.71 g/m*3 14.5 C 0 km/h
231 26-09-2009 22:09:01 14.3 C 7.74 g/m*3 14.3 C 0 km/h
232 26-09-2009 22:21:01 14 C 7.72 g/m*3 14 C 0 km/h
233 26-09-2009 22:33:02 13.8 C 7.86 g/m*3 13.8 C 0 km/h
234 26-09-2009 22:45:02 13.6 C 7.89 g/m*3 13.6 C 0 km/h
235 26-09-2009 22:57:02 13.4 C 7.79 g/m*3 13.4 C 0 km/h
236 26-09-2009 23:09:02 13.2 C 7.81 g/m*3 13.2 C 0 km/h
237 26-09-2009 23:21:02 13 C 7.94 g/m*3 13 C 0 km/h
238 26-09-2009 23:33:02 12.6 C 8.08 g/m*3 12.6 C 0 km/h
239 26-09-2009 23:45:02 12.5 C 8.25 g/m*3 12.5 C 0 km/h
240 26-09-2009 23:57:02 12.2 C 8.09 g/m*3 12.2 C 0 km/h
241 27-09-2009 00:09:03 12.1 C 8.04 g/m*3 12.1 C 0 km/h
242 27-09-2009 00:21:02 11.9 C 8.05 g/m*3 11.9 C 0 km/h
243 27-09-2009 00:33:02 11.7 C 8.16 g/m*3 11.7 C 0 km/h
244 27-09-2009 00:45:02 11.5 C 8.06 g/m*3 11.5 C 0 km/h
245 27-09-2009 00:57:02 11.5 C 8.16 g/m*3 11.5 C 0 km/h
246 27-09-2009 01:09:02 11.4 C 8.11 g/m*3 11.4 C 0 km/h
247 27-09-2009 01:21:02 11.1 C 7.96 g/m*3 11.1 C 0 km/h
248 27-09-2009 01:33:02 11.1 C 7.96 g/m*3 11.1 C 0 km/h
249 27-09-2009 01:45:02 10.9 C 7.96 g/m*3 10.9 C 0 km/h
250 27-09-2009 01:57:02 10.8 C 8.01 g/m*3 10.8 C 0 km/h
Sensor: Nr:Datum:Temp:Abs-Feuchte:Windchill:Wind:
Aussen-T/F 251 27-09-2009 02:09:01 10.6 C 8 g/m*3 10.6 C 0 km/h
252 27-09-2009 02:21:02 10.5 C 7.95 g/m*3 10.5 C 0 km/h
253 27-09-2009 02:33:02 10.4 C 7.9 g/m*3 10.4 C 0 km/h
254 27-09-2009 02:45:01 10.2 C 7.8 g/m*3 10.2 C 0 km/h
255 27-09-2009 02:57:01 10.1 C 7.75 g/m*3 10.1 C 0 km/h
256 27-09-2009 03:09:01 9.9 C 7.75 g/m*3 9.9 C 0 km/h
257 27-09-2009 03:21:01 9.8 C 7.7 g/m*3 9.8 C 0 km/h
258 27-09-2009 03:33:01 9.7 C 7.65 g/m*3 9.7 C 0 km/h
259 27-09-2009 03:45:01 9.6 C 7.69 g/m*3 9.6 C 0 km/h
260 27-09-2009 03:57:02 9.5 C 7.65 g/m*3 9.5 C 0 km/h
261 27-09-2009 04:09:01 9.3 C 7.55 g/m*3 9.3 C 0 km/h
262 27-09-2009 04:21:01 9.3 C 7.55 g/m*3 9.3 C 0 km/h
263 27-09-2009 04:33:02 9.2 C 7.5 g/m*3 9.2 C 0 km/h
264 27-09-2009 04:45:01 9 C 7.41 g/m*3 9 C 0 km/h
265 27-09-2009 04:57:01 8.9 C 7.45 g/m*3 8.9 C 0 km/h
266 27-09-2009 05:09:02 8.8 C 7.4 g/m*3 8.8 C 0 km/h
267 27-09-2009 05:21:01 8.6 C 7.3 g/m*3 8.6 C 0 km/h
268 27-09-2009 05:33:02 8.5 C 7.34 g/m*3 8.5 C 0 km/h
269 27-09-2009 05:45:01 8.5 C 7.43 g/m*3 8.5 C 0 km/h
270 27-09-2009 05:57:01 8.6 C 7.48 g/m*3 8.6 C 0 km/h
271 27-09-2009 06:09:02 8.6 C 7.56 g/m*3 8.6 C 0 km/h
272 27-09-2009 06:21:01 8.6 C 7.56 g/m*3 8.6 C 0 km/h
273 27-09-2009 06:33:01 8.7 C 7.7 g/m*3 8.7 C 0 km/h
274 27-09-2009 06:45:01 8.9 C 7.8 g/m*3 8.9 C 0 km/h
275 27-09-2009 06:57:01 8.8 C 7.66 g/m*3 8.8 C 0 km/h
Sensor: Nr:Datum:Temp:Abs-Feuchte:Windchill:Wind:
Aussen-T/F 276 27-09-2009 07:09:02 8.8 C 7.66 g/m*3 8.8 C 0 km/h
277 27-09-2009 07:21:01 8.7 C 7.61 g/m*3 8.7 C 0 km/h
278 27-09-2009 07:33:01 8.8 C 7.66 g/m*3 8.8 C 0 km/h
279 27-09-2009 07:45:01 8.8 C 7.57 g/m*3 8.8 C 0 km/h
280 27-09-2009 07:57:01 8.5 C 7.43 g/m*3 8.5 C 0 km/h
281 27-09-2009 08:09:01 8.5 C 7.51 g/m*3 8.5 C 0 km/h
282 27-09-2009 08:21:01 8.5 C 7.51 g/m*3 8.5 C 0 km/h
283 27-09-2009 08:33:01 8.3 C 7.42 g/m*3 8.3 C 0 km/h
284 27-09-2009 08:45:01 8.5 C 7.6 g/m*3 8.5 C 0 km/h
285 27-09-2009 08:57:01 8.7 C 7.7 g/m*3 8.7 C 0 km/h
286 27-09-2009 09:09:01 8.8 C 7.66 g/m*3 8.8 C 0 km/h
287 27-09-2009 09:21:02 8.9 C 7.71 g/m*3 8.9 C 0 km/h
288 27-09-2009 09:33:01 9.3 C 7.73 g/m*3 9.3 C 0 km/h
289 27-09-2009 09:45:02 9.4 C 7.69 g/m*3 9.4 C 0 km/h
290 27-09-2009 09:57:02 9.7 C 7.74 g/m*3 9.7 C 0 km/h
291 27-09-2009 10:09:01 10.3 C 7.95 g/m*3 10.3 C 0 km/h
292 27-09-2009 10:21:02 11 C 8.11 g/m*3 11 C 0 km/h
293 27-09-2009 10:33:01 11.5 C 8.06 g/m*3 11.5 C 0 km/h
294 27-09-2009 10:45:02 11.9 C 8.05 g/m*3 11.9 C 0 km/h
295 27-09-2009 10:57:02 12.5 C 8.14 g/m*3 12.5 C 0 km/h
296 27-09-2009 11:09:01 12.6 C 7.97 g/m*3 12.6 C 0 km/h
297 27-09-2009 11:21:02 13 C 8.05 g/m*3 13 C 0 km/h
298 27-09-2009 11:33:01 13.1 C 8.1 g/m*3 13.1 C 0 km/h
299 27-09-2009 11:45:02 13 C 8.28 g/m*3 13 C 0 km/h
300 27-09-2009 11:57:02 13.3 C 8.55 g/m*3 13.3 C 0 km/h
Sensor: Nr:Datum:Temp:Abs-Feuchte:Windchill:Wind:
Aussen-T/F 301 27-09-2009 12:09:01 13.8 C 8.7 g/m*3 13.8 C 0 km/h
302 27-09-2009 12:21:01 14.4 C 8.65 g/m*3 14.4 C 0 km/h
303 27-09-2009 12:33:02 15 C 8.85 g/m*3 15 C 0 km/h
304 27-09-2009 12:45:02 15.8 C 8.75 g/m*3 15.8 C 0 km/h
305 27-09-2009 12:57:02 16.4 C 8.79 g/m*3 16.4 C 0 km/h
306 27-09-2009 13:09:01 17.1 C 8.59 g/m*3 17.1 C 0 km/h
307 27-09-2009 13:21:01 18.2 C 8.7 g/m*3 18.2 C 0 km/h
308 27-09-2009 13:33:02 18.9 C 8.42 g/m*3 18.9 C 0 km/h
309 27-09-2009 13:45:01 19.3 C 8.79 g/m*3 19.3 C 0 km/h
310 27-09-2009 13:57:01 20.3 C 8.27 g/m*3 20.3 C 0 km/h
311 27-09-2009 14:09:01 21.1 C 8.29 g/m*3 21.1 C 0 km/h
312 27-09-2009 14:21:01 22 C 7.96 g/m*3 22 C 0 km/h
313 27-09-2009 14:33:02 22.3 C 8.29 g/m*3 22.3 C 0 km/h
314 27-09-2009 14:45:01 22.8 C 8.13 g/m*3 22.8 C 0 km/h
315 27-09-2009 14:57:01 23.3 C 7.74 g/m*3 23.3 C 0 km/h
316 27-09-2009 15:09:02 23.8 C 8.17 g/m*3 23.8 C 0 km/h
317 27-09-2009 15:21:01 24 C 6.53 g/m*3 24 C 0 km/h
318 27-09-2009 15:33:02 24.5 C 7.39 g/m*3 24.5 C 0 km/h
319 27-09-2009 15:45:01 25 C 6.68 g/m*3 25 C 0 km/h
320 27-09-2009 15:57:01 25.4 C 7.06 g/m*3 25.4 C 0 km/h
321 27-09-2009 16:09:02 25.7 C 7.18 g/m*3 25.7 C 0 km/h
322 27-09-2009 16:21:01 26 C 7.06 g/m*3 26 C 0 km/h
323 27-09-2009 16:33:01 25.9 C 7.02 g/m*3 25.9 C 0 km/h
324 27-09-2009 16:45:01 26.1 C 6.85 g/m*3 26.1 C 0 km/h
325 27-09-2009 16:57:01 26.2 C 6.65 g/m*3 26.2 C 0 km/h
Sensor: Nr:Datum:Temp:Abs-Feuchte:Windchill:Wind:
Aussen-T/F 326 27-09-2009 17:09:01 26.4 C 6.97 g/m*3 26.4 C 0 km/h
327 27-09-2009 17:21:01 26.4 C 6.47 g/m*3 26.4 C 0 km/h
328 27-09-2009 17:33:01 26.2 C 6.65 g/m*3 26.2 C 0 km/h
329 27-09-2009 17:45:01 25.1 C 6.71 g/m*3 25.1 C 0 km/h
330 27-09-2009 17:57:01 24.4 C 6.45 g/m*3 24.4 C 0 km/h
331 27-09-2009 18:09:01 23.9 C 6.49 g/m*3 23.9 C 0 km/h
332 27-09-2009 18:21:02 23.2 C 6.44 g/m*3 23.2 C 0 km/h
333 27-09-2009 18:33:01 22.3 C 6.52 g/m*3 22.3 C 0 km/h
334 27-09-2009 18:45:02 21.5 C 6.6 g/m*3 21.5 C 0 km/h
335 27-09-2009 18:57:02 20.3 C 6.86 g/m*3 20.3 C 0 km/h
336 27-09-2009 19:09:01 19.4 C 7.01 g/m*3 19.4 C 0 km/h
337 27-09-2009 19:21:02 18.7 C 7.04 g/m*3 18.7 C 0 km/h
338 27-09-2009 19:33:02 18.2 C 6.99 g/m*3 18.2 C 0 km/h
339 27-09-2009 19:45:01 17.9 C 7.18 g/m*3 17.9 C 0 km/h
340 27-09-2009 19:57:01 17.3 C 7.22 g/m*3 17.3 C 0 km/h
341 27-09-2009 20:09:01 16.9 C 7.34 g/m*3 16.9 C 0 km/h
342 27-09-2009 20:21:02 16.6 C 7.35 g/m*3 16.6 C 0 km/h
343 27-09-2009 20:33:01 16.3 C 7.49 g/m*3 16.3 C 0 km/h
344 27-09-2009 20:45:01 16.2 C 7.45 g/m*3 16.2 C 0 km/h
345 27-09-2009 20:57:01 16.1 C 7.4 g/m*3 16.1 C 0 km/h
346 27-09-2009 21:09:01 15.8 C 7.54 g/m*3 15.8 C 0 km/h
347 27-09-2009 21:21:02 15.5 C 7.67 g/m*3 15.5 C 0 km/h
348 27-09-2009 21:33:01 15.2 C 7.53 g/m*3 15.2 C 0 km/h
349 27-09-2009 21:45:02 14.9 C 7.77 g/m*3 14.9 C 0 km/h
350 27-09-2009 21:57:02 14.7 C 7.81 g/m*3 14.7 C 0 km/h
Sensor: Nr:Datum:Temp:Abs-Feuchte:Windchill:Wind:
Aussen-T/F 351 27-09-2009 22:09:01 14.5 C 7.84 g/m*3 14.5 C 0 km/h
352 27-09-2009 22:21:02 14 C 7.72 g/m*3 14 C 0 km/h
353 27-09-2009 22:33:01 13.8 C 7.86 g/m*3 13.8 C 0 km/h
354 27-09-2009 22:45:01 13.7 C 7.93 g/m*3 13.7 C 0 km/h
355 27-09-2009 22:57:01 13.3 C 7.97 g/m*3 13.3 C 0 km/h
356 27-09-2009 23:09:01 12.9 C 8.11 g/m*3 12.9 C 0 km/h
357 27-09-2009 23:21:02 12.9 C 8.11 g/m*3 12.9 C 0 km/h
358 27-09-2009 23:33:01 12.8 C 8.06 g/m*3 12.8 C 0 km/h
359 27-09-2009 23:45:02 12.7 C 8.01 g/m*3 12.7 C 0 km/h
360 27-09-2009 23:57:02 12.5 C 7.92 g/m*3 12.5 C 0 km/h
361 28-09-2009 00:09:01 12.5 C 8.14 g/m*3 12.5 C 0 km/h
362 28-09-2009 00:21:02 12.3 C 8.04 g/m*3 12.3 C 0 km/h
363 28-09-2009 00:33:01 12.1 C 8.04 g/m*3 12.1 C 0 km/h
364 28-09-2009 00:45:02 11.8 C 8 g/m*3 11.8 C 0 km/h
365 28-09-2009 00:57:02 11.6 C 8 g/m*3 11.6 C 0 km/h
366 28-09-2009 01:09:01 11.5 C 7.95 g/m*3 11.5 C 0 km/h
367 28-09-2009 01:21:02 11.4 C 8.01 g/m*3 11.4 C 0 km/h
368 28-09-2009 01:33:01 11.3 C 7.96 g/m*3 11.3 C 0 km/h
369 28-09-2009 01:45:02 11.2 C 7.91 g/m*3 11.2 C 0 km/h
370 28-09-2009 01:57:02 11.1 C 7.96 g/m*3 11.1 C 0 km/h
371 28-09-2009 02:09:01 11 C 7.91 g/m*3 11 C 0 km/h
372 28-09-2009 02:21:02 10.8 C 7.91 g/m*3 10.8 C 0 km/h
373 28-09-2009 02:33:01 10.8 C 7.91 g/m*3 10.8 C 0 km/h
374 28-09-2009 02:46:06 10.6 C 7.91 g/m*3 10.6 C 0 km/h
375 28-09-2009 02:58:06 10.5 C 7.95 g/m*3 10.5 C 0 km/h
Sensor: Nr:Datum:Temp:Abs-Feuchte:Windchill:Wind:
Aussen-T/F 376 28-09-2009 03:10:06 10.4 C 7.9 g/m*3 10.4 C 0 km/h
377 28-09-2009 03:22:06 10.2 C 7.9 g/m*3 10.2 C 0 km/h
378 28-09-2009 03:34:01 10 C 7.8 g/m*3 10 C 0 km/h
379 28-09-2009 03:46:01 9.9 C 7.94 g/m*3 9.9 C 0 km/h
380 28-09-2009 03:58:01 9.8 C 7.89 g/m*3 9.8 C 0 km/h
381 28-09-2009 04:10:02 9.7 C 7.93 g/m*3 9.7 C 0 km/h
382 28-09-2009 04:22:02 9.7 C 7.93 g/m*3 9.7 C 0 km/h
383 28-09-2009 04:34:02 9.5 C 7.83 g/m*3 9.5 C 0 km/h
384 28-09-2009 04:46:01 9.4 C 7.78 g/m*3 9.4 C 0 km/h
385 28-09-2009 04:58:01 9.3 C 7.73 g/m*3 9.3 C 0 km/h
386 28-09-2009 05:10:02 9.2 C 7.68 g/m*3 9.2 C 0 km/h
387 28-09-2009 05:22:02 9 C 7.58 g/m*3 9 C 0 km/h
388 28-09-2009 05:34:01 8.9 C 7.62 g/m*3 8.9 C 0 km/h
389 28-09-2009 05:46:02 8.9 C 7.71 g/m*3 8.9 C 0 km/h
390 28-09-2009 05:58:02 8.7 C 7.61 g/m*3 8.7 C 0 km/h
391 28-09-2009 06:10:01 8.7 C 7.61 g/m*3 8.7 C 0 km/h
392 28-09-2009 06:22:02 8.7 C 7.61 g/m*3 8.7 C 0 km/h
393 28-09-2009 06:34:01 8.5 C 7.51 g/m*3 8.5 C 0 km/h
394 28-09-2009 06:46:02 8.5 C 7.51 g/m*3 8.5 C 0 km/h
395 28-09-2009 06:58:02 8.4 C 7.47 g/m*3 8.4 C 0 km/h
396 28-09-2009 07:10:02 8.2 C 7.37 g/m*3 8.2 C 0 km/h
397 28-09-2009 07:22:02 8.2 C 7.45 g/m*3 8.2 C 0 km/h
398 28-09-2009 07:34:03 8 C 7.36 g/m*3 8 C 0 km/h
399 28-09-2009 07:46:02 8 C 7.36 g/m*3 8 C 0 km/h
400 28-09-2009 07:58:03 8 C 7.36 g/m*3 8 C 0 km/h
Sensor: Nr:Datum:Temp:Abs-Feuchte:Windchill:Wind:
Aussen-T/F 401 28-09-2009 08:10:01 8 C 7.36 g/m*3 8 C 0 km/h
402 28-09-2009 08:22:02 8 C 7.36 g/m*3 8 C 0 km/h
403 28-09-2009 08:34:02 8.1 C 7.41 g/m*3 8.1 C 0 km/h
404 28-09-2009 08:46:02 8.4 C 7.55 g/m*3 8.4 C 0 km/h
405 28-09-2009 08:58:02 8.3 C 7.5 g/m*3 8.3 C 0 km/h
406 28-09-2009 09:10:03 8.6 C 7.73 g/m*3 8.6 C 0 km/h
407 28-09-2009 09:22:02 8.9 C 7.88 g/m*3 8.9 C 0 km/h
408 28-09-2009 09:34:01 9.4 C 8.05 g/m*3 9.4 C 0 km/h
409 28-09-2009 09:46:02 9.4 C 7.87 g/m*3 9.4 C 0 km/h
410 28-09-2009 09:58:02 9.6 C 7.88 g/m*3 9.6 C 0 km/h
411 28-09-2009 10:10:01 10 C 7.89 g/m*3 10 C 0 km/h
412 28-09-2009 10:22:02 10.4 C 8 g/m*3 10.4 C 0 km/h
413 28-09-2009 10:34:01 10.4 C 7.9 g/m*3 10.4 C 0 km/h
414 28-09-2009 10:46:02 11.2 C 8.21 g/m*3 11.2 C 0 km/h
415 28-09-2009 10:58:02 12.1 C 8.47 g/m*3 12.1 C 0 km/h
416 28-09-2009 11:10:02 12.7 C 8.46 g/m*3 12.7 C 0 km/h
417 28-09-2009 11:22:02 13.5 C 8.54 g/m*3 13.5 C 0 km/h
418 28-09-2009 11:34:03 14.1 C 8.37 g/m*3 14.1 C 0 km/h
419 28-09-2009 11:46:02 14.8 C 8.36 g/m*3 14.8 C 0 km/h
420 28-09-2009 11:58:02 15.8 C 8.21 g/m*3 15.8 C 0 km/h
421 28-09-2009 12:10:01 16.2 C 8 g/m*3 16.2 C 0 km/h
422 28-09-2009 12:22:02 16.4 C 8.23 g/m*3 16.4 C 0 km/h
423 28-09-2009 12:34:02 16.9 C 8.2 g/m*3 16.9 C 0 km/h
424 28-09-2009 12:46:02 17.4 C 8.3 g/m*3 17.4 C 0 km/h
425 28-09-2009 12:58:02 18.1 C 8.19 g/m*3 18.1 C 0 km/h
Sensor: Nr:Datum:Temp:Abs-Feuchte:Windchill:Wind:
Aussen-T/F 426 28-09-2009 13:10:02 18.5 C 8.23 g/m*3 18.5 C 0 km/h
427 28-09-2009 13:22:02 18.9 C 8.26 g/m*3 18.9 C 0 km/h
428 28-09-2009 13:34:02 19.2 C 8.08 g/m*3 19.2 C 0 km/h
429 28-09-2009 13:46:01 19.8 C 8.2 g/m*3 19.8 C 0 km/h
430 28-09-2009 13:58:01 20.8 C 8.15 g/m*3 20.8 C 0 km/h
431 28-09-2009 14:10:02 21.2 C 7.6 g/m*3 21.2 C 0 km/h
432 28-09-2009 14:22:01 21 C 7.69 g/m*3 21 C 0 km/h
433 28-09-2009 14:34:01 20.6 C 7.87 g/m*3 20.6 C 0 km/h
434 28-09-2009 14:46:01 20.6 C 8.23 g/m*3 20.6 C 0 km/h
435 28-09-2009 14:58:01 21.4 C 7.87 g/m*3 21.4 C 0 km/h
436 28-09-2009 15:10:02 22 C 7.57 g/m*3 22 C 0 km/h
437 28-09-2009 15:22:01 22 C 7.76 g/m*3 22 C 0 km/h
438 28-09-2009 15:34:01 21.6 C 7.78 g/m*3 21.6 C 0 km/h
439 28-09-2009 15:46:01 22.5 C 7.99 g/m*3 22.5 C 0 km/h
440 28-09-2009 15:58:01 22.6 C 7.83 g/m*3 22.6 C 0 km/h
441 28-09-2009 16:10:02 22.8 C 7.72 g/m*3 22.8 C 0 km/h
442 28-09-2009 16:22:01 23 C 7.6 g/m*3 23 C 0 km/h
443 28-09-2009 16:34:01 23.5 C 7.61 g/m*3 23.5 C 0 km/h
444 28-09-2009 16:46:01 22.8 C 7.32 g/m*3 22.8 C 0 km/h
445 28-09-2009 16:58:01 22.7 C 8.08 g/m*3 22.7 C 0 km/h
446 28-09-2009 17:10:01 22.5 C 7.99 g/m*3 22.5 C 0 km/h
447 28-09-2009 17:22:02 21.9 C 8.1 g/m*3 21.9 C 0 km/h
448 28-09-2009 17:34:01 22.1 C 7.81 g/m*3 22.1 C 0 km/h
449 28-09-2009 17:46:03 21.9 C 8.1 g/m*3 21.9 C 0 km/h
450 28-09-2009 17:58:03 20.8 C 8.33 g/m*3 20.8 C 0 km/h
Sensor: Nr:Datum:Temp:Abs-Feuchte:Windchill:Wind:
Aussen-T/F 451 28-09-2009 18:10:02 19.8 C 8.37 g/m*3 19.8 C 0 km/h
452 28-09-2009 18:22:02 19.2 C 8.41 g/m*3 19.2 C 0 km/h
453 28-09-2009 18:34:02 18.7 C 8.65 g/m*3 18.7 C 0 km/h
454 28-09-2009 18:46:02 18.3 C 8.76 g/m*3 18.3 C 0 km/h
455 28-09-2009 18:58:02 18.1 C 8.81 g/m*3 18.1 C 0 km/h
456 28-09-2009 19:10:02 17.8 C 8.95 g/m*3 17.8 C 0 km/h
457 28-09-2009 19:22:02 17.3 C 8.84 g/m*3 17.3 C 0 km/h
458 28-09-2009 19:34:01 17 C 8.83 g/m*3 17 C 0 km/h
459 28-09-2009 19:46:02 16.6 C 8.9 g/m*3 16.6 C 0 km/h
460 28-09-2009 19:58:02 16.3 C 8.88 g/m*3 16.3 C 0 km/h
461 28-09-2009 20:10:01 16.1 C 9.05 g/m*3 16.1 C 0 km/h
462 28-09-2009 20:22:02 15.8 C 9.15 g/m*3 15.8 C 0 km/h
463 28-09-2009 20:34:02 15.6 C 9.04 g/m*3 15.6 C 0 km/h
464 28-09-2009 20:46:02 15.6 C 9.18 g/m*3 15.6 C 0 km/h
465 28-09-2009 20:58:02 15.4 C 9.07 g/m*3 15.4 C 0 km/h
466 28-09-2009 21:10:02 15.3 C 9.01 g/m*3 15.3 C 0 km/h
467 28-09-2009 21:22:02 15.3 C 9.01 g/m*3 15.3 C 0 km/h
468 28-09-2009 21:34:02 15.2 C 8.96 g/m*3 15.2 C 0 km/h
469 28-09-2009 21:46:01 15.2 C 8.96 g/m*3 15.2 C 0 km/h
470 28-09-2009 21:58:01 14.8 C 8.99 g/m*3 14.8 C 0 km/h
471 28-09-2009 22:11:02 14.6 C 9.01 g/m*3 14.6 C 0 km/h
472 28-09-2009 22:23:02 14.5 C 8.95 g/m*3 14.5 C 0 km/h
473 28-09-2009 22:35:02 14.5 C 8.95 g/m*3 14.5 C 0 km/h
474 28-09-2009 22:47:02 14 C 8.81 g/m*3 14 C 0 km/h
475 28-09-2009 22:59:02 13.9 C 8.99 g/m*3 13.9 C 0 km/h
Sensor: Nr:Datum:Temp:Abs-Feuchte:Windchill:Wind:
Aussen-T/F 476 28-09-2009 23:11:02 14 C 9.17 g/m*3 14 C 0 km/h
477 28-09-2009 23:23:02 14.2 C 9.4 g/m*3 14.2 C 0 km/h
478 28-09-2009 23:35:02 14.5 C 9.33 g/m*3 14.5 C 0 km/h
479 28-09-2009 23:47:02 14.2 C 9.28 g/m*3 14.2 C 0 km/h
480 28-09-2009 23:59:02 14.4 C 9.39 g/m*3 14.4 C 0 km/h
481 29-09-2009 00:11:02 14.5 C 9.33 g/m*3 14.5 C 0 km/h
482 29-09-2009 00:23:02 14.7 C 9.32 g/m*3 14.7 C 0 km/h
483 29-09-2009 00:35:03 14.7 C 9.32 g/m*3 14.7 C 0 km/h
484 29-09-2009 00:47:03 14.7 C 9.19 g/m*3 14.7 C 0 km/h
485 29-09-2009 00:59:03 14.6 C 9.13 g/m*3 14.6 C 0 km/h
486 29-09-2009 01:11:03 14.6 C 9.13 g/m*3 14.6 C 0 km/h
487 29-09-2009 01:23:03 14.6 C 9.13 g/m*3 14.6 C 0 km/h
488 29-09-2009 01:35:03 14.6 C 9.13 g/m*3 14.6 C 0 km/h
489 29-09-2009 01:47:03 14.7 C 9.19 g/m*3 14.7 C 0 km/h
490 29-09-2009 01:59:03 14.6 C 9.26 g/m*3 14.6 C 0 km/h
491 29-09-2009 02:11:03 14.7 C 9.32 g/m*3 14.7 C 0 km/h
492 29-09-2009 02:23:03 14.7 C 9.32 g/m*3 14.7 C 0 km/h
493 29-09-2009 02:35:03 14.8 C 9.12 g/m*3 14.8 C 0 km/h
494 29-09-2009 02:47:03 15 C 8.85 g/m*3 15 C 0 km/h
495 29-09-2009 02:59:03 15.1 C 8.77 g/m*3 15.1 C 0 km/h
496 29-09-2009 03:11:03 15.2 C 8.7 g/m*3 15.2 C 0 km/h
497 29-09-2009 03:23:03 15.2 C 8.44 g/m*3 15.2 C 0 km/h
498 29-09-2009 03:35:03 15.2 C 8.44 g/m*3 15.2 C 0 km/h
499 29-09-2009 03:47:03 15.2 C 8.31 g/m*3 15.2 C 0 km/h
500 29-09-2009 03:59:03 15.2 C 8.18 g/m*3 15.2 C 0 km/h
Sensor: Nr:Datum:Temp:Abs-Feuchte:Windchill:Wind:
Aussen-T/F 501 29-09-2009 04:11:03 15.2 C 8.05 g/m*3 15.2 C 0 km/h
502 29-09-2009 04:23:04 15.2 C 8.05 g/m*3 15.2 C 0 km/h
503 29-09-2009 04:35:04 15 C 7.95 g/m*3 15 C 0 km/h
504 29-09-2009 04:47:04 14.9 C 8.03 g/m*3 14.9 C 0 km/h
505 29-09-2009 04:59:04 14.9 C 7.9 g/m*3 14.9 C 0 km/h
506 29-09-2009 05:11:04 14.9 C 7.9 g/m*3 14.9 C 0 km/h
507 29-09-2009 05:23:04 14.7 C 7.68 g/m*3 14.7 C 0 km/h
508 29-09-2009 05:35:04 14.2 C 7.57 g/m*3 14.2 C 0 km/h
509 29-09-2009 05:47:04 13.9 C 7.79 g/m*3 13.9 C 0 km/h
510 29-09-2009 05:59:04 13.7 C 7.82 g/m*3 13.7 C 0 km/h
511 29-09-2009 06:11:04 13.4 C 7.79 g/m*3 13.4 C 0 km/h
512 29-09-2009 06:23:04 13.2 C 7.92 g/m*3 13.2 C 0 km/h
513 29-09-2009 06:35:04 13 C 7.94 g/m*3 13 C 0 km/h
514 29-09-2009 06:47:04 13.1 C 7.87 g/m*3 13.1 C 0 km/h
515 29-09-2009 06:59:04 13.2 C 7.81 g/m*3 13.2 C 0 km/h
516 29-09-2009 07:11:02 13.4 C 7.9 g/m*3 13.4 C 0 km/h
517 29-09-2009 07:23:02 13.4 C 7.9 g/m*3 13.4 C 0 km/h
518 29-09-2009 07:35:02 13.5 C 7.95 g/m*3 13.5 C 0 km/h
519 29-09-2009 07:47:01 13.4 C 8.02 g/m*3 13.4 C 0 km/h
520 29-09-2009 07:59:01 13.6 C 7.89 g/m*3 13.6 C 0 km/h
521 29-09-2009 08:11:02 13.6 C 7.89 g/m*3 13.6 C 0 km/h
522 29-09-2009 08:23:01 13.6 C 7.89 g/m*3 13.6 C 0 km/h
523 29-09-2009 08:35:01 13.8 C 7.98 g/m*3 13.8 C 0 km/h
524 29-09-2009 08:47:01 14 C 7.84 g/m*3 14 C 0 km/h
525 29-09-2009 08:59:01 14 C 7.96 g/m*3 14 C 0 km/h
Sensor: Nr:Datum:Temp:Abs-Feuchte:Windchill:Wind:
Aussen-T/F 526 29-09-2009 09:11:01 14.2 C 7.94 g/m*3 14.2 C 0 km/h
527 29-09-2009 09:23:02 14.6 C 8.13 g/m*3 14.6 C 0 km/h
528 29-09-2009 09:35:01 14.7 C 8.06 g/m*3 14.7 C 0 km/h
529 29-09-2009 09:47:03 14.7 C 8.06 g/m*3 14.7 C 0 km/h
530 29-09-2009 09:59:03 15 C 8.21 g/m*3 15 C 0 km/h
531 29-09-2009 10:11:02 15 C 8.08 g/m*3 15 C 0 km/h
532 29-09-2009 10:23:03 15 C 8.08 g/m*3 15 C 0 km/h
533 29-09-2009 10:35:02 15.2 C 8.18 g/m*3 15.2 C 0 km/h
534 29-09-2009 10:47:02 15.1 C 8.13 g/m*3 15.1 C 0 km/h
535 29-09-2009 10:59:02 15.3 C 8.23 g/m*3 15.3 C 0 km/h
536 29-09-2009 11:11:02 15.3 C 8.23 g/m*3 15.3 C 0 km/h
537 29-09-2009 11:23:02 15.4 C 8.41 g/m*3 15.4 C 0 km/h
538 29-09-2009 11:35:02 15.3 C 8.49 g/m*3 15.3 C 0 km/h
539 29-09-2009 11:47:02 15.6 C 8.64 g/m*3 15.6 C 0 km/h
540 29-09-2009 11:59:02 15.7 C 8.7 g/m*3 15.7 C 0 km/h
541 29-09-2009 12:11:01 16.1 C 8.64 g/m*3 16.1 C 0 km/h
542 29-09-2009 12:23:02 16.2 C 8.41 g/m*3 16.2 C 0 km/h
543 29-09-2009 12:35:02 16.6 C 8.48 g/m*3 16.6 C 0 km/h
544 29-09-2009 12:47:02 17 C 8.39 g/m*3 17 C 0 km/h
545 29-09-2009 12:59:02 17.5 C 8.2 g/m*3 17.5 C 0 km/h
546 29-09-2009 13:11:02 17.8 C 8.35 g/m*3 17.8 C 0 km/h
547 29-09-2009 13:23:02 17.7 C 8.45 g/m*3 17.7 C 0 km/h
548 29-09-2009 13:35:02 17.9 C 8.7 g/m*3 17.9 C 0 km/h
549 29-09-2009 13:47:02 18.7 C 8.33 g/m*3 18.7 C 0 km/h
550 29-09-2009 13:59:02 18.6 C 8.44 g/m*3 18.6 C 0 km/h
Sensor: Nr:Datum:Temp:Abs-Feuchte:Windchill:Wind:
Aussen-T/F 551 29-09-2009 14:11:02 18.5 C 8.39 g/m*3 18.5 C 0 km/h
552 29-09-2009 14:23:01 18.6 C 8.59 g/m*3 18.6 C 0 km/h
553 29-09-2009 14:35:02 18.3 C 8.44 g/m*3 18.3 C 0 km/h
554 29-09-2009 14:47:02 18.4 C 8.34 g/m*3 18.4 C 0 km/h
555 29-09-2009 14:59:02 18.1 C 8.34 g/m*3 18.1 C 0 km/h
556 29-09-2009 15:11:02 18.1 C 8.34 g/m*3 18.1 C 0 km/h
557 29-09-2009 15:23:02 18.2 C 8.55 g/m*3 18.2 C 0 km/h
558 29-09-2009 15:35:02 18 C 8.45 g/m*3 18 C 0 km/h
559 29-09-2009 15:47:02 17.8 C 8.5 g/m*3 17.8 C 0 km/h
560 29-09-2009 15:59:02 17.6 C 8.85 g/m*3 17.6 C 0 km/h
561 29-09-2009 16:11:02 17.6 C 8.7 g/m*3 17.6 C 0 km/h
562 29-09-2009 16:23:02 17.8 C 8.65 g/m*3 17.8 C 0 km/h
563 29-09-2009 16:35:02 17.6 C 8.85 g/m*3 17.6 C 0 km/h
564 29-09-2009 16:47:02 17.5 C 9.09 g/m*3 17.5 C 0 km/h
565 29-09-2009 16:59:02 17.7 C 9.05 g/m*3 17.7 C 0 km/h
566 29-09-2009 17:11:02 17.9 C 8.86 g/m*3 17.9 C 0 km/h
567 29-09-2009 17:23:02 18 C 9.06 g/m*3 18 C 0 km/h
568 29-09-2009 17:35:02 17.7 C 9.05 g/m*3 17.7 C 0 km/h
569 29-09-2009 17:47:02 17.5 C 9.09 g/m*3 17.5 C 0 km/h
570 29-09-2009 17:59:02 17.4 C 9.04 g/m*3 17.4 C 0 km/h
571 29-09-2009 18:11:02 17.3 C 8.99 g/m*3 17.3 C 0 km/h
572 29-09-2009 18:23:03 17.3 C 8.84 g/m*3 17.3 C 0 km/h
573 29-09-2009 18:35:02 17.2 C 8.93 g/m*3 17.2 C 0 km/h
574 29-09-2009 18:47:02 17.2 C 9.08 g/m*3 17.2 C 0 km/h
575 29-09-2009 18:59:02 17.3 C 9.13 g/m*3 17.3 C 0 km/h
Sensor: Nr:Datum:Temp:Abs-Feuchte:Windchill:Wind:
Aussen-T/F 576 29-09-2009 19:11:02 17.1 C 8.88 g/m*3 17.1 C 0 km/h
577 29-09-2009 19:23:03 17.2 C 8.93 g/m*3 17.2 C 0 km/h
578 29-09-2009 19:35:02 17.2 C 8.93 g/m*3 17.2 C 0 km/h
579 29-09-2009 19:47:02 17.2 C 8.79 g/m*3 17.2 C 0 km/h
580 29-09-2009 19:59:02 17 C 8.83 g/m*3 17 C 0 km/h
581 29-09-2009 20:11:02 17 C 8.83 g/m*3 17 C 0 km/h
582 29-09-2009 20:23:02 17.1 C 9.03 g/m*3 17.1 C 0 km/h
583 29-09-2009 20:35:02 17.2 C 9.23 g/m*3 17.2 C 0 km/h
584 29-09-2009 20:47:02 17 C 9.26 g/m*3 17 C 0 km/h
585 29-09-2009 20:59:02 16.9 C 9.49 g/m*3 16.9 C 0 km/h
586 29-09-2009 21:11:02 16.8 C 9.44 g/m*3 16.8 C 0 km/h
587 29-09-2009 21:23:02 16.8 C 9.58 g/m*3 16.8 C 0 km/h
588 29-09-2009 21:35:01 16.6 C 9.61 g/m*3 16.6 C 0 km/h
589 29-09-2009 21:47:02 16.6 C 9.61 g/m*3 16.6 C 0 km/h
590 29-09-2009 21:59:02 16.6 C 9.61 g/m*3 16.6 C 0 km/h
591 29-09-2009 22:11:02 16.4 C 9.63 g/m*3 16.4 C 0 km/h
592 29-09-2009 22:24:03 16.4 C 9.77 g/m*3 16.4 C 0 km/h
593 29-09-2009 22:36:03 16.3 C 9.71 g/m*3 16.3 C 0 km/h
594 29-09-2009 22:48:03 16.2 C 9.79 g/m*3 16.2 C 0 km/h
595 29-09-2009 23:00:03 16.2 C 9.93 g/m*3 16.2 C 0 km/h
596 29-09-2009 23:12:03 16.1 C 9.87 g/m*3 16.1 C 0 km/h
597 29-09-2009 23:24:03 16 C 9.95 g/m*3 16 C 0 km/h
598 29-09-2009 23:36:03 16 C 9.95 g/m*3 16 C 0 km/h
599 29-09-2009 23:48:03 16 C 9.95 g/m*3 16 C 0 km/h
600 30-09-2009 00:00:03 15.9 C 10.16 g/m*3 15.9 C 0 km/h
Sensor: Nr:Datum:Temp:Abs-Feuchte:Windchill:Wind:
Aussen-T/F 601 30-09-2009 00:12:03 15.7 C 10.03 g/m*3 15.7 C 0 km/h
602 30-09-2009 00:24:03 15.6 C 10.11 g/m*3 15.6 C 0 km/h
603 30-09-2009 00:36:03 15.6 C 10.11 g/m*3 15.6 C 0 km/h
604 30-09-2009 00:48:03 15.6 C 10.11 g/m*3 15.6 C 0 km/h
605 30-09-2009 01:00:03 15.6 C 10.11 g/m*3 15.6 C 0 km/h
606 30-09-2009 01:12:04 15.6 C 10.11 g/m*3 15.6 C 0 km/h
607 30-09-2009 01:24:04 15.6 C 10.11 g/m*3 15.6 C 0 km/h
608 30-09-2009 01:36:04 15.6 C 10.11 g/m*3 15.6 C 0 km/h
609 30-09-2009 01:48:04 15.6 C 10.11 g/m*3 15.6 C 0 km/h
610 30-09-2009 02:00:04 15.6 C 9.97 g/m*3 15.6 C 0 km/h
611 30-09-2009 02:12:04 15.5 C 9.91 g/m*3 15.5 C 0 km/h
612 30-09-2009 02:24:04 15.5 C 9.91 g/m*3 15.5 C 0 km/h
613 30-09-2009 02:36:04 15.5 C 9.78 g/m*3 15.5 C 0 km/h
614 30-09-2009 02:48:04 15.6 C 9.84 g/m*3 15.6 C 0 km/h
615 30-09-2009 03:00:04 15.6 C 9.84 g/m*3 15.6 C 0 km/h
616 30-09-2009 03:12:04 15.6 C 9.84 g/m*3 15.6 C 0 km/h
617 30-09-2009 03:24:04 15.5 C 9.78 g/m*3 15.5 C 0 km/h
618 30-09-2009 03:36:04 15.5 C 9.78 g/m*3 15.5 C 0 km/h
619 30-09-2009 03:48:04 15.4 C 9.72 g/m*3 15.4 C 0 km/h
620 30-09-2009 04:00:04 15.4 C 9.72 g/m*3 15.4 C 0 km/h
621 30-09-2009 04:12:04 15.4 C 9.85 g/m*3 15.4 C 0 km/h
622 30-09-2009 04:24:04 15.3 C 9.79 g/m*3 15.3 C 0 km/h
623 30-09-2009 04:36:04 15.2 C 9.86 g/m*3 15.2 C 0 km/h
624 30-09-2009 04:48:04 15.2 C 9.86 g/m*3 15.2 C 0 km/h
625 30-09-2009 05:00:05 15.2 C 9.99 g/m*3 15.2 C 0 km/h
Sensor: Nr:Datum:Temp:Abs-Feuchte:Windchill:Wind:
Aussen-T/F 626 30-09-2009 05:12:05 15.2 C 10.12 g/m*3 15.2 C 0 km/h
627 30-09-2009 05:24:05 15.2 C 9.99 g/m*3 15.2 C 0 km/h
628 30-09-2009 05:36:05 15.3 C 10.06 g/m*3 15.3 C 0 km/h
629 30-09-2009 05:48:05 15.3 C 10.06 g/m*3 15.3 C 0 km/h
630 30-09-2009 06:00:05 15.3 C 9.92 g/m*3 15.3 C 0 km/h
631 30-09-2009 06:12:05 15.3 C 9.92 g/m*3 15.3 C 0 km/h
632 30-09-2009 06:24:05 15.3 C 9.92 g/m*3 15.3 C 0 km/h
633 30-09-2009 06:36:05 15.2 C 9.86 g/m*3 15.2 C 0 km/h
634 30-09-2009 06:48:05 15.2 C 9.99 g/m*3 15.2 C 0 km/h
635 30-09-2009 07:00:05 15.2 C 9.99 g/m*3 15.2 C 0 km/h
636 30-09-2009 07:12:05 15.1 C 9.93 g/m*3 15.1 C 0 km/h
637 30-09-2009 07:24:02 15.1 C 9.93 g/m*3 15.1 C 0 km/h
638 30-09-2009 07:36:02 15.1 C 9.93 g/m*3 15.1 C 0 km/h
639 30-09-2009 07:48:02 15.1 C 9.93 g/m*3 15.1 C 0 km/h
640 30-09-2009 08:00:02 15.2 C 9.99 g/m*3 15.2 C 0 km/h
641 30-09-2009 08:12:02 15.2 C 9.99 g/m*3 15.2 C 0 km/h
642 30-09-2009 08:24:02 15.4 C 10.12 g/m*3 15.4 C 0 km/h
643 30-09-2009 08:36:01 15.6 C 10.24 g/m*3 15.6 C 0 km/h
644 30-09-2009 08:48:02 15.8 C 10.36 g/m*3 15.8 C 0 km/h
645 30-09-2009 09:00:02 16 C 10.22 g/m*3 16 C 0 km/h
646 30-09-2009 09:12:01 16.1 C 10.01 g/m*3 16.1 C 0 km/h
647 30-09-2009 09:24:01 16.1 C 10.01 g/m*3 16.1 C 0 km/h
648 30-09-2009 09:36:02 16.3 C 10.13 g/m*3 16.3 C 0 km/h
649 30-09-2009 09:48:02 16.3 C 10.13 g/m*3 16.3 C 0 km/h
650 30-09-2009 10:00:02 16.2 C 9.93 g/m*3 16.2 C 0 km/h
Sensor: Nr:Datum:Temp:Abs-Feuchte:Windchill:Wind:
Aussen-T/F 651 30-09-2009 10:12:01 16.3 C 9.99 g/m*3 16.3 C 0 km/h
652 30-09-2009 10:24:02 16.3 C 9.99 g/m*3 16.3 C 0 km/h
653 30-09-2009 10:36:02 16 C 10.08 g/m*3 16 C 0 km/h
654 30-09-2009 10:48:02 16.2 C 10.2 g/m*3 16.2 C 0 km/h
655 30-09-2009 11:00:02 16.6 C 10.03 g/m*3 16.6 C 0 km/h
656 30-09-2009 11:12:03 17.4 C 10.08 g/m*3 17.4 C 0 km/h
657 30-09-2009 11:24:02 17.9 C 10.54 g/m*3 17.9 C 0 km/h
658 30-09-2009 11:36:02 18.4 C 9.91 g/m*3 18.4 C 0 km/h
659 30-09-2009 11:48:01 19 C 9.78 g/m*3 19 C 0 km/h
660 30-09-2009 12:00:01 19.1 C 9.67 g/m*3 19.1 C 0 km/h
661 30-09-2009 12:12:02 19.2 C 9.4 g/m*3 19.2 C 0 km/h
662 30-09-2009 12:24:01 19.7 C 9.51 g/m*3 19.7 C 0 km/h
663 30-09-2009 12:36:02 19.6 C 9.45 g/m*3 19.6 C 0 km/h
664 30-09-2009 12:48:02 19.4 C 9.34 g/m*3 19.4 C 0 km/h
665 30-09-2009 13:00:02 19.4 C 9.34 g/m*3 19.4 C 0 km/h
666 30-09-2009 13:12:02 19.6 C 9.79 g/m*3 19.6 C 0 km/h
667 30-09-2009 13:24:03 20.5 C 9.79 g/m*3 20.5 C 0 km/h
668 30-09-2009 13:36:02 20.6 C 9.66 g/m*3 20.6 C 0 km/h
669 30-09-2009 13:48:03 20.2 C 9.62 g/m*3 20.2 C 0 km/h
670 30-09-2009 14:00:03 20 C 9.51 g/m*3 20 C 0 km/h
671 30-09-2009 14:12:02 19.7 C 9.68 g/m*3 19.7 C 0 km/h
672 30-09-2009 14:24:02 19.4 C 9.51 g/m*3 19.4 C 0 km/h
673 30-09-2009 14:36:02 19.4 C 9.51 g/m*3 19.4 C 0 km/h
674 30-09-2009 14:48:02 19.3 C 9.62 g/m*3 19.3 C 0 km/h
675 30-09-2009 15:00:02 19.1 C 9.67 g/m*3 19.1 C 0 km/h
Sensor: Nr:Datum:Temp:Abs-Feuchte:Windchill:Wind:
Aussen-T/F 676 30-09-2009 15:12:02 19 C 9.61 g/m*3 19 C 0 km/h
677 30-09-2009 15:24:02 19.1 C 9.84 g/m*3 19.1 C 0 km/h
678 30-09-2009 15:36:02 19.2 C 9.73 g/m*3 19.2 C 0 km/h
679 30-09-2009 15:48:02 19.2 C 9.89 g/m*3 19.2 C 0 km/h
680 30-09-2009 16:00:02 19.1 C 9.84 g/m*3 19.1 C 0 km/h
681 30-09-2009 16:12:01 19.1 C 9.67 g/m*3 19.1 C 0 km/h
682 30-09-2009 16:24:02 19.3 C 9.62 g/m*3 19.3 C 0 km/h
683 30-09-2009 16:36:02 19.1 C 9.67 g/m*3 19.1 C 0 km/h
684 30-09-2009 16:48:01 19.1 C 10 g/m*3 19.1 C 0 km/h
685 30-09-2009 17:00:01 19.3 C 9.95 g/m*3 19.3 C 0 km/h
686 30-09-2009 17:12:02 19.3 C 9.62 g/m*3 19.3 C 0 km/h
687 30-09-2009 17:24:01 19.1 C 9.84 g/m*3 19.1 C 0 km/h
688 30-09-2009 17:36:02 18.9 C 10.21 g/m*3 18.9 C 0 km/h
689 30-09-2009 17:48:02 18.7 C 10.41 g/m*3 18.7 C 0 km/h
690 30-09-2009 18:00:02 18.4 C 10.38 g/m*3 18.4 C 0 km/h
691 30-09-2009 18:12:02 18.4 C 10.54 g/m*3 18.4 C 0 km/h
692 30-09-2009 18:24:01 18.4 C 10.54 g/m*3 18.4 C 0 km/h
693 30-09-2009 18:36:02 18.3 C 10.48 g/m*3 18.3 C 0 km/h
694 30-09-2009 18:48:02 17.8 C 10.47 g/m*3 17.8 C 0 km/h
695 30-09-2009 19:00:02 17.3 C 9.72 g/m*3 17.3 C 0 km/h
696 30-09-2009 19:12:02 16.9 C 9.78 g/m*3 16.9 C 0 km/h
697 30-09-2009 19:24:02 16.5 C 9.69 g/m*3 16.5 C 0 km/h
698 30-09-2009 19:36:02 16.3 C 9.71 g/m*3 16.3 C 0 km/h
699 30-09-2009 19:48:02 16.2 C 9.65 g/m*3 16.2 C 0 km/h
700 30-09-2009 20:00:02 16 C 9.54 g/m*3 16 C 0 km/h
Sensor: Nr:Datum:Temp:Abs-Feuchte:Windchill:Wind:
Aussen-T/F 701 30-09-2009 20:12:02 15.5 C 9.65 g/m*3 15.5 C 0 km/h
702 30-09-2009 20:24:02 15 C 9.62 g/m*3 15 C 0 km/h
703 30-09-2009 20:36:02 14.8 C 9.75 g/m*3 14.8 C 0 km/h
704 30-09-2009 20:48:02 14.6 C 9.64 g/m*3 14.6 C 0 km/h
705 30-09-2009 21:00:02 14.4 C 9.64 g/m*3 14.4 C 0 km/h
706 30-09-2009 21:12:03 14.5 C 9.95 g/m*3 14.5 C 0 km/h
707 30-09-2009 21:24:02 14.2 C 9.77 g/m*3 14.2 C 0 km/h
708 30-09-2009 21:36:02 14.1 C 9.71 g/m*3 14.1 C 0 km/h
709 30-09-2009 21:48:01 13.9 C 9.83 g/m*3 13.9 C 0 km/h
710 30-09-2009 22:00:01 13.8 C 9.89 g/m*3 13.8 C 0 km/h
711 30-09-2009 22:12:02 13.7 C 9.83 g/m*3 13.7 C 0 km/h
712 30-09-2009 22:24:01 13.6 C 9.77 g/m*3 13.6 C 0 km/h
713 30-09-2009 22:37:02 13.6 C 9.89 g/m*3 13.6 C 0 km/h
714 30-09-2009 22:49:02 13.4 C 9.76 g/m*3 13.4 C 0 km/h
715 30-09-2009 23:01:02 13.6 C 10 g/m*3 13.6 C 0 km/h
716 30-09-2009 23:13:02 13.6 C 10 g/m*3 13.6 C 0 km/h
717 30-09-2009 23:25:03 13.7 C 10.07 g/m*3 13.7 C 0 km/h
718 30-09-2009 23:37:03 13.7 C 10.07 g/m*3 13.7 C 0 km/h
719 30-09-2009 23:49:03 13.7 C 9.95 g/m*3 13.7 C 0 km/h

Legende:
   Min
   Max


Maximal/Minimal-Werte vom 25.09.2009 - 30.09.2009

Sensor Min Max Avg
Temp
(Aussen-T/F)
7.8 °C
26-09-2009  06:21:05
26.4 °C
27-09-2009  17:09:01
15.17 °C
Abs-Feuchte
(Aussen-T/F)
5.53 g/m*3
25-09-2009  15:56:02
10.54 g/m*3
30-09-2009  11:24:02
8.37 g/m*3
Windchill
(Aussen-T/F)
7.8 C
26-09-2009  06:21:05
26.4 C
27-09-2009  17:09:01
15.14 C

Die Daten stammen von einer Davis Vantage Pro 2 Wetter-Station und werden unter Linux mit der Software wview2wettercgi und aufbereitet. Alle Angaben erfolgen ohne Gewähr für ihre Vollständigkeit oder Richtigkeit.
Kontakt: Rainer Krienke krienke@uni-koblenz.de . Meine Webseiten an der Uni Koblenz oder privat.
Version: $Revision: 0.78 $